createdAt,value
2018-12-04T00:00:23.630Z,96.60
2018-12-04T00:02:51.914Z,96.60
2018-12-04T00:05:20.198Z,96.60
2018-12-04T00:07:48.329Z,96.60
2018-12-04T00:10:16.679Z,96.60
2018-12-04T00:12:45.143Z,96.60
2018-12-04T00:15:13.588Z,96.60
2018-12-04T00:17:41.867Z,96.60
2018-12-04T00:20:10.902Z,96.60
2018-12-04T00:22:39.435Z,96.60
2018-12-04T00:25:07.837Z,96.60
2018-12-04T00:27:36.241Z,96.60
2018-12-04T00:30:06.213Z,96.60
2018-12-04T00:32:34.342Z,96.60
2018-12-04T00:35:03.143Z,96.60
2018-12-04T00:37:31.451Z,96.60
2018-12-04T00:40:00.852Z,96.60
2018-12-04T00:42:29.322Z,96.60
2018-12-04T00:44:57.908Z,96.60
2018-12-04T00:47:26.208Z,96.60
2018-12-04T00:49:54.678Z,96.60
2018-12-04T00:52:23.044Z,96.60
2018-12-04T00:54:51.418Z,96.60
2018-12-04T00:57:19.649Z,96.60
2018-12-04T01:01:13.255Z,96.60
2018-12-04T01:03:41.582Z,96.60
2018-12-04T01:06:09.779Z,96.60
2018-12-04T01:08:37.959Z,96.60
2018-12-04T01:11:06.176Z,96.60
2018-12-04T01:13:34.407Z,96.60
2018-12-04T01:16:02.837Z,96.60
2018-12-04T01:18:31.196Z,96.60
2018-12-04T01:20:59.489Z,96.60
2018-12-04T01:23:28.957Z,96.60
2018-12-04T01:25:58.857Z,96.60
2018-12-04T01:28:27.259Z,96.60
2018-12-04T01:30:55.814Z,96.60
2018-12-04T01:33:24.165Z,96.60
2018-12-04T01:35:52.535Z,96.60
2018-12-04T01:38:20.942Z,96.60
2018-12-04T01:40:49.475Z,96.60
2018-12-04T01:43:18.131Z,96.60
2018-12-04T01:45:46.310Z,96.60
2018-12-04T01:48:14.706Z,96.60
2018-12-04T01:50:42.949Z,96.60
2018-12-04T01:53:11.227Z,96.60
2018-12-04T01:55:39.502Z,96.60
2018-12-04T01:58:07.680Z,96.60
2018-12-04T02:00:36.456Z,96.60
2018-12-04T02:03:04.783Z,96.60
2018-12-04T02:05:33.269Z,96.60
2018-12-04T02:08:01.607Z,96.60
2018-12-04T02:10:29.925Z,96.30
2018-12-04T02:12:58.404Z,96.30
2018-12-04T02:15:27.132Z,95.70
2018-12-04T02:17:55.257Z,95.20
2018-12-04T02:20:23.683Z,95.00
2018-12-04T02:22:52.374Z,95.10
2018-12-04T02:25:21.373Z,95.20
2018-12-04T02:27:50.098Z,95.20
2018-12-04T02:30:18.602Z,95.30
2018-12-04T02:32:46.865Z,95.50
2018-12-04T02:35:15.230Z,95.40
2018-12-04T02:37:43.543Z,95.20
2018-12-04T02:40:11.983Z,95.30
2018-12-04T02:42:41.400Z,94.90
2018-12-04T02:45:10.067Z,95.00
2018-12-04T02:47:38.182Z,94.70
2018-12-04T02:50:06.805Z,95.00
2018-12-04T02:52:35.223Z,94.90
2018-12-04T02:55:04.231Z,94.70
2018-12-04T02:57:32.588Z,94.60
2018-12-04T03:00:01.713Z,94.50
2018-12-04T03:02:30.464Z,94.10
2018-12-04T03:04:58.820Z,94.40
2018-12-04T03:07:27.680Z,94.30
2018-12-04T03:09:55.796Z,93.90
2018-12-04T03:12:24.053Z,93.90
2018-12-04T03:14:53.017Z,93.80
2018-12-04T03:17:21.738Z,93.60
2018-12-04T03:19:50.020Z,93.80
2018-12-04T03:22:18.696Z,93.70
2018-12-04T03:24:47.268Z,93.60
2018-12-04T03:27:15.789Z,93.70
2018-12-04T03:29:44.036Z,93.50
2018-12-04T03:32:12.371Z,93.80
2018-12-04T03:34:40.586Z,93.50
2018-12-04T03:37:08.813Z,93.50
2018-12-04T03:39:38.305Z,93.30
2018-12-04T03:42:06.825Z,93.50
2018-12-04T03:44:35.039Z,93.40
2018-12-04T03:47:03.309Z,93.40
2018-12-04T03:49:31.435Z,93.20
2018-12-04T03:51:59.709Z,93.20
2018-12-04T03:54:27.999Z,92.80
2018-12-04T03:56:56.406Z,92.80
2018-12-04T03:59:25.342Z,92.70
2018-12-04T04:01:54.363Z,93.10
2018-12-04T04:04:22.716Z,92.90
2018-12-04T04:06:51.006Z,92.80
2018-12-04T04:09:19.369Z,93.00
2018-12-04T04:11:48.179Z,92.70
2018-12-04T04:14:16.686Z,92.30
2018-12-04T04:16:44.975Z,92.00
2018-12-04T04:19:13.464Z,91.20
2018-12-04T04:21:42.364Z,90.00
2018-12-04T04:24:11.138Z,90.00
2018-12-04T04:26:39.305Z,89.90
2018-12-04T04:29:07.706Z,89.60
2018-12-04T04:31:36.054Z,89.50
2018-12-04T04:34:04.421Z,89.30
2018-12-04T04:36:32.843Z,89.10
2018-12-04T04:39:01.948Z,88.70
2018-12-04T04:41:30.817Z,88.60
2018-12-04T04:43:59.097Z,89.20
2018-12-04T04:46:27.502Z,89.30
2018-12-04T04:48:56.069Z,89.10
2018-12-04T04:51:24.730Z,89.70
2018-12-04T04:53:52.911Z,89.50
2018-12-04T04:56:21.225Z,89.80
2018-12-04T04:58:50.893Z,89.60
2018-12-04T05:01:19.640Z,89.80
2018-12-04T05:03:48.176Z,90.00
2018-12-04T05:06:16.559Z,90.10
2018-12-04T05:08:44.987Z,89.50
2018-12-04T05:11:13.235Z,89.70
2018-12-04T05:13:41.483Z,89.90
2018-12-04T05:16:09.767Z,90.20
2018-12-04T05:18:38.027Z,90.20
2018-12-04T05:21:06.481Z,90.20
2018-12-04T05:23:35.217Z,90.20
2018-12-04T05:26:03.594Z,90.60
2018-12-04T05:28:31.811Z,89.70
2018-12-04T05:31:00.073Z,90.30
2018-12-04T05:33:28.927Z,90.00
2018-12-04T05:35:57.227Z,89.00
2018-12-04T05:38:25.617Z,88.70
2018-12-04T05:40:54.348Z,88.70
2018-12-04T05:43:22.565Z,87.90
2018-12-04T05:45:51.479Z,88.70
2018-12-04T05:48:19.721Z,88.40
2018-12-04T05:50:49.008Z,88.40
2018-12-04T05:53:31.763Z,88.80
2018-12-04T05:55:59.930Z,88.60
2018-12-04T05:58:28.399Z,88.50
2018-12-04T06:00:57.077Z,88.30
2018-12-04T06:03:25.368Z,88.10
2018-12-04T06:05:53.576Z,88.60
2018-12-04T06:08:22.062Z,89.10
2018-12-04T06:10:50.383Z,88.80
2018-12-04T06:13:18.627Z,88.70
2018-12-04T06:15:47.508Z,88.50
2018-12-04T06:18:15.853Z,88.20
2018-12-04T06:20:44.214Z,88.10
2018-12-04T06:23:13.190Z,88.40
2018-12-04T06:25:41.588Z,89.00
2018-12-04T06:28:09.854Z,89.50
2018-12-04T06:30:38.105Z,89.90
2018-12-04T06:33:06.565Z,91.20
2018-12-04T06:35:34.793Z,91.60
2018-12-04T06:38:03.796Z,92.40
2018-12-04T06:40:33.204Z,93.00
2018-12-04T06:43:01.975Z,93.50
2018-12-04T06:45:30.362Z,93.60
2018-12-04T06:47:58.896Z,93.90
2018-12-04T06:50:27.311Z,93.90
2018-12-04T06:52:55.732Z,94.20
2018-12-04T06:55:24.620Z,94.40
2018-12-04T06:57:55.594Z,95.00
2018-12-04T07:00:25.621Z,95.30
2018-12-04T07:02:54.293Z,96.00
2018-12-04T07:05:22.441Z,95.90
2018-12-04T07:07:50.620Z,96.50
2018-12-04T07:10:18.991Z,96.60
2018-12-04T07:12:47.400Z,96.60
2018-12-04T07:15:15.978Z,96.60
2018-12-04T07:17:44.222Z,96.60
2018-12-04T07:20:12.511Z,96.60
2018-12-04T07:22:40.812Z,96.60
2018-12-04T07:25:09.596Z,96.60
2018-12-04T07:27:37.767Z,96.60
2018-12-04T07:30:08.539Z,96.60
2018-12-04T07:32:38.880Z,96.60
2018-12-04T07:35:08.918Z,96.60
2018-12-04T07:37:37.197Z,96.50
2018-12-04T07:40:06.689Z,96.20
2018-12-04T07:42:35.049Z,96.20
2018-12-04T07:45:03.682Z,96.00
2018-12-04T07:47:31.963Z,95.80
2018-12-04T07:50:00.369Z,95.60
2018-12-04T07:52:28.777Z,96.20
2018-12-04T07:54:57.506Z,95.90
2018-12-04T07:57:25.932Z,96.00
2018-12-04T07:59:54.722Z,96.60
2018-12-04T08:02:23.099Z,96.40
2018-12-04T08:04:51.330Z,96.30
2018-12-04T08:07:19.564Z,96.50
2018-12-04T08:09:47.826Z,96.60
2018-12-04T08:12:16.112Z,96.60
2018-12-04T08:14:44.571Z,96.60
2018-12-04T08:17:12.822Z,96.60
2018-12-04T08:19:41.147Z,96.60
2018-12-04T08:22:09.412Z,96.60
2018-12-04T08:24:37.938Z,96.60
2018-12-04T08:27:07.241Z,96.60
2018-12-04T08:29:35.609Z,96.60
2018-12-04T08:32:03.778Z,96.60
2018-12-04T08:34:32.159Z,96.60
2018-12-04T08:37:00.371Z,96.60
2018-12-04T08:39:28.802Z,96.60
2018-12-04T08:41:56.986Z,96.60
2018-12-04T08:44:25.276Z,96.60
2018-12-04T08:46:53.582Z,96.60
2018-12-04T08:49:21.930Z,96.20
2018-12-04T08:51:50.226Z,95.90
2018-12-04T08:54:18.505Z,95.10
2018-12-04T08:56:47.066Z,95.20
2018-12-04T08:59:16.455Z,93.70
2018-12-04T09:01:44.721Z,91.80
2018-12-04T09:04:13.139Z,91.70
2018-12-04T09:06:41.513Z,91.60
2018-12-04T09:09:10.802Z,91.90
2018-12-04T09:11:39.155Z,92.20
2018-12-04T09:14:07.516Z,92.10
2018-12-04T09:16:35.642Z,92.90
2018-12-04T09:19:04.168Z,93.00
2018-12-04T09:21:32.418Z,93.00
2018-12-04T09:24:01.554Z,93.00
2018-12-04T09:26:29.843Z,93.30
2018-12-04T09:28:58.318Z,93.00
2018-12-04T09:31:26.819Z,94.30
2018-12-04T09:33:55.091Z,92.80
2018-12-04T09:36:24.084Z,91.30
2018-12-04T09:38:52.394Z,91.20
2018-12-04T09:41:20.921Z,91.50
2018-12-04T09:43:49.191Z,91.70
2018-12-04T09:46:17.556Z,91.20
2018-12-04T09:48:45.709Z,91.30
2018-12-04T09:51:14.035Z,91.30
2018-12-04T09:53:42.305Z,91.20
2018-12-04T09:56:10.730Z,91.20
2018-12-04T09:58:39.798Z,90.60
2018-12-04T10:01:08.015Z,89.70
2018-12-04T10:03:36.361Z,87.90
2018-12-04T10:06:04.710Z,87.10
2018-12-04T10:08:33.273Z,86.60
2018-12-04T10:11:01.558Z,85.80
2018-12-04T10:13:29.790Z,86.50
2018-12-04T10:15:58.050Z,87.30
2018-12-04T10:18:26.263Z,85.90
2018-12-04T10:20:54.921Z,86.10
2018-12-04T10:23:23.864Z,86.50
2018-12-04T10:25:52.503Z,85.20
2018-12-04T10:28:21.238Z,85.20
2018-12-04T10:30:55.266Z,83.30
2018-12-04T10:33:23.530Z,82.80
2018-12-04T10:35:51.898Z,82.90
2018-12-04T10:38:20.160Z,83.00
2018-12-04T10:40:48.358Z,83.60
2018-12-04T10:43:16.852Z,83.00
2018-12-04T10:45:45.224Z,84.00
2018-12-04T10:48:13.724Z,83.40
2018-12-04T10:50:41.890Z,83.20
2018-12-04T10:53:10.284Z,84.00
2018-12-04T10:55:38.561Z,83.40
2018-12-04T10:58:06.842Z,82.50
2018-12-04T11:00:41.155Z,83.90
2018-12-04T11:03:13.158Z,82.80
2018-12-04T11:05:42.545Z,80.70
2018-12-04T11:08:10.808Z,81.20
2018-12-04T11:10:39.271Z,80.30
2018-12-04T11:13:08.030Z,80.00
2018-12-04T11:15:36.797Z,80.30
2018-12-04T11:18:05.050Z,78.40
2018-12-04T11:20:33.630Z,77.80
2018-12-04T11:23:02.015Z,78.30
2018-12-04T11:25:30.486Z,79.80
2018-12-04T11:27:58.833Z,77.80
2018-12-04T11:30:27.139Z,77.80
2018-12-04T11:32:55.476Z,78.10
2018-12-04T11:35:24.173Z,75.90
2018-12-04T11:37:52.415Z,75.30
2018-12-04T11:40:20.708Z,76.20
2018-12-04T11:42:49.145Z,76.30
2018-12-04T11:45:17.410Z,75.90
2018-12-04T11:47:45.853Z,75.10
2018-12-04T11:50:14.101Z,74.50
2018-12-04T11:52:42.542Z,75.40
2018-12-04T11:55:10.729Z,76.20
2018-12-04T11:57:38.857Z,76.30
2018-12-04T12:00:16.130Z,75.20
2018-12-04T12:02:44.831Z,75.80
2018-12-04T12:05:13.026Z,75.80
2018-12-04T12:07:41.943Z,75.60
2018-12-04T12:10:10.428Z,75.10
2018-12-04T12:12:38.794Z,76.60
2018-12-04T12:15:07.195Z,76.00
2018-12-04T12:17:35.415Z,76.10
2018-12-04T12:20:04.512Z,75.20
2018-12-04T12:22:32.663Z,72.50
2018-12-04T12:25:01.442Z,73.00
2018-12-04T12:27:29.794Z,73.30
2018-12-04T12:29:57.970Z,74.70
2018-12-04T12:32:26.228Z,74.10
2018-12-04T12:34:54.804Z,74.80
2018-12-04T12:37:22.986Z,74.50
2018-12-04T12:39:51.391Z,74.90
2018-12-04T12:42:20.351Z,75.30
2018-12-04T12:44:48.550Z,74.70
2018-12-04T12:47:17.513Z,77.40
2018-12-04T12:49:45.920Z,78.00
2018-12-04T12:52:14.665Z,77.80
2018-12-04T12:54:44.474Z,77.30
2018-12-04T12:57:12.754Z,77.30
2018-12-04T12:59:41.543Z,70.10
2018-12-04T13:02:09.838Z,70.10
2018-12-04T13:04:37.959Z,70.30
2018-12-04T13:07:06.873Z,67.30
2018-12-04T13:09:35.078Z,64.20
2018-12-04T13:12:03.502Z,61.70
2018-12-04T13:14:32.009Z,60.10
2018-12-04T13:17:00.177Z,60.40
2018-12-04T13:19:28.624Z,58.20
2018-12-04T13:21:56.919Z,56.70
2018-12-04T13:24:25.984Z,54.50
2018-12-04T13:26:54.390Z,54.10
2018-12-04T13:29:22.794Z,52.30
2018-12-04T13:31:51.514Z,53.10
2018-12-04T13:34:19.858Z,51.60
2018-12-04T13:36:49.035Z,52.70
2018-12-04T13:39:17.535Z,55.00
2018-12-04T13:41:45.814Z,58.00
2018-12-04T13:44:14.431Z,57.00
2018-12-04T13:46:42.953Z,57.70
2018-12-04T13:49:11.138Z,53.80
2018-12-04T13:51:39.587Z,53.20
2018-12-04T13:54:07.865Z,51.80
2018-12-04T13:56:36.430Z,49.60
2018-12-04T13:59:05.588Z,50.10
2018-12-04T14:01:33.850Z,52.40
2018-12-04T14:04:02.286Z,53.70
2018-12-04T14:06:31.134Z,54.50
2018-12-04T14:08:59.963Z,56.20
2018-12-04T14:11:28.413Z,58.50
2018-12-04T14:13:56.844Z,61.30
2018-12-04T14:16:25.288Z,63.80
2018-12-04T14:18:53.769Z,64.60
2018-12-04T14:21:22.015Z,65.80
2018-12-04T14:23:51.363Z,67.20
2018-12-04T14:26:20.068Z,67.40
2018-12-04T14:28:48.389Z,66.00
2018-12-04T14:31:17.102Z,63.90
2018-12-04T14:33:45.358Z,62.30
2018-12-04T14:36:13.819Z,63.00
2018-12-04T14:38:43.322Z,66.00
2018-12-04T14:41:11.618Z,69.40
2018-12-04T14:43:39.896Z,72.70
2018-12-04T14:46:08.178Z,72.10
2018-12-04T14:48:37.027Z,73.20
2018-12-04T14:51:05.371Z,75.50
2018-12-04T14:53:33.790Z,76.90
2018-12-04T14:56:02.069Z,78.20
2018-12-04T14:58:30.950Z,79.20
2018-12-04T15:00:59.865Z,80.20
2018-12-04T15:03:28.318Z,81.10
2018-12-04T15:05:56.866Z,82.10
2018-12-04T15:08:25.415Z,82.50
2018-12-04T15:10:54.054Z,83.40
2018-12-04T15:13:22.302Z,84.40
2018-12-04T15:15:50.646Z,85.30
2018-12-04T15:18:18.817Z,86.00
2018-12-04T15:20:48.540Z,86.80
2018-12-04T15:23:16.717Z,86.40
2018-12-04T15:25:46.479Z,86.70
2018-12-04T15:28:15.085Z,87.10
2018-12-04T15:30:43.387Z,87.20
2018-12-04T15:33:11.932Z,87.40
2018-12-04T15:35:40.270Z,87.60
2018-12-04T15:38:09.081Z,87.90
2018-12-04T15:40:37.424Z,88.30
2018-12-04T15:43:06.809Z,88.40
2018-12-04T15:45:35.115Z,89.10
2018-12-04T15:48:03.795Z,89.50
2018-12-04T15:50:32.054Z,90.00
2018-12-04T15:53:00.463Z,90.10
2018-12-04T15:55:28.722Z,91.20
2018-12-04T15:57:57.386Z,91.40
2018-12-04T16:00:25.923Z,91.80
2018-12-04T16:02:54.640Z,91.50
2018-12-04T16:05:22.827Z,91.30
2018-12-04T16:07:51.119Z,91.00
2018-12-04T16:10:19.578Z,90.70
2018-12-04T16:12:48.039Z,91.70
2018-12-04T16:15:16.143Z,93.00
2018-12-04T16:17:44.563Z,93.00
2018-12-04T16:20:12.936Z,92.80
2018-12-04T16:22:41.707Z,92.20
2018-12-04T16:25:10.688Z,91.60
2018-12-04T16:27:38.868Z,91.60
2018-12-04T16:30:09.174Z,91.40
2018-12-04T16:32:37.422Z,91.90
2018-12-04T16:35:07.319Z,92.30
2018-12-04T16:37:35.901Z,92.10
2018-12-04T16:40:05.794Z,93.00
2018-12-04T16:42:34.059Z,93.80
2018-12-04T16:45:02.585Z,94.20
2018-12-04T16:47:30.958Z,94.30
2018-12-04T16:49:59.293Z,94.10
2018-12-04T16:52:27.424Z,94.20
2018-12-04T16:54:55.807Z,94.10
2018-12-04T16:57:24.780Z,93.30
2018-12-04T16:59:53.420Z,93.40
2018-12-04T17:02:22.142Z,93.50
2018-12-04T17:04:50.286Z,94.50
2018-12-04T17:07:18.599Z,94.70
2018-12-04T17:09:47.371Z,94.50
2018-12-04T17:12:15.582Z,94.90
2018-12-04T17:14:45.111Z,94.90
2018-12-04T17:17:13.402Z,95.00
2018-12-04T17:19:42.983Z,95.00
2018-12-04T17:22:11.553Z,95.60
2018-12-04T17:24:40.212Z,95.90
2018-12-04T17:27:08.571Z,95.30
2018-12-04T17:29:37.444Z,95.80
2018-12-04T17:32:05.739Z,95.90
2018-12-04T17:34:34.515Z,94.90
2018-12-04T17:37:02.785Z,94.40
2018-12-04T17:39:31.053Z,94.00
2018-12-04T17:41:59.660Z,94.30
2018-12-04T17:44:28.617Z,94.60
2018-12-04T17:46:56.748Z,94.80
2018-12-04T17:49:25.195Z,94.80
2018-12-04T17:51:53.555Z,95.10
2018-12-04T17:54:22.505Z,95.00
2018-12-04T17:56:50.705Z,95.90
2018-12-04T17:59:19.576Z,95.50
2018-12-04T18:01:48.203Z,95.40
2018-12-04T18:04:16.929Z,95.10
2018-12-04T18:06:45.528Z,94.60
2018-12-04T18:09:14.032Z,94.70
2018-12-04T18:11:42.182Z,94.80
2018-12-04T18:14:10.454Z,95.30
2018-12-04T18:16:39.274Z,96.60
2018-12-04T18:19:08.693Z,96.60
2018-12-04T18:24:12.542Z,96.60
2018-12-04T18:26:41.422Z,96.40
2018-12-04T18:29:09.696Z,95.90
2018-12-04T18:31:37.798Z,95.80
2018-12-04T18:34:06.605Z,96.20
2018-12-04T18:36:35.304Z,96.60
2018-12-04T18:39:05.682Z,96.60
2018-12-04T18:41:33.960Z,96.60
2018-12-04T18:44:02.238Z,96.60
2018-12-04T18:46:30.821Z,96.60
2018-12-04T18:48:59.339Z,96.60
2018-12-04T18:51:27.944Z,96.60
2018-12-04T18:53:56.361Z,96.60
2018-12-04T18:56:25.652Z,96.60
2018-12-04T18:58:54.768Z,96.60
2018-12-04T19:01:23.069Z,96.60
2018-12-04T19:03:51.378Z,96.60
2018-12-04T19:06:19.702Z,96.60
2018-12-04T19:08:49.304Z,96.60
2018-12-04T19:11:17.622Z,96.60
2018-12-04T19:13:46.139Z,96.60
2018-12-04T19:16:15.362Z,96.60
2018-12-04T19:18:43.724Z,96.60
2018-12-04T19:21:12.094Z,96.60
2018-12-04T19:23:40.666Z,96.60
2018-12-04T19:26:09.463Z,96.60
2018-12-04T19:28:37.779Z,96.60
2018-12-04T19:31:06.190Z,96.50
2018-12-04T19:33:34.794Z,96.00
2018-12-04T19:36:03.058Z,95.80
2018-12-04T19:38:31.375Z,96.00
2018-12-04T19:40:59.685Z,96.10
2018-12-04T19:43:27.990Z,96.10
2018-12-04T19:45:57.994Z,96.20
2018-12-04T19:48:26.675Z,96.20
2018-12-04T19:50:54.786Z,96.40
2018-12-04T19:53:23.010Z,96.20
2018-12-04T19:55:51.228Z,96.10
2018-12-04T19:58:19.351Z,96.00
2018-12-04T20:00:48.510Z,95.60
2018-12-04T20:03:16.914Z,95.60
2018-12-04T20:05:45.389Z,95.70
2018-12-04T20:08:13.793Z,95.30
2018-12-04T20:10:41.957Z,95.20
2018-12-04T20:13:10.694Z,94.80
2018-12-04T20:15:39.619Z,95.10
2018-12-04T20:18:08.215Z,95.60
2018-12-04T20:20:36.470Z,95.60
2018-12-04T20:23:04.605Z,96.40
2018-12-04T20:25:32.974Z,96.60
2018-12-04T20:28:02.281Z,96.60
2018-12-04T20:30:30.719Z,96.60
2018-12-04T20:32:59.970Z,96.60
2018-12-04T20:35:28.521Z,96.60
2018-12-04T20:37:57.615Z,96.60
2018-12-04T20:40:31.529Z,96.60
2018-12-04T20:42:56.534Z,96.60
2018-12-04T20:45:24.830Z,96.30
2018-12-04T20:47:53.614Z,96.40
2018-12-04T20:50:22.049Z,96.60
2018-12-04T20:52:50.592Z,96.60
2018-12-04T20:55:20.043Z,96.60
2018-12-04T20:57:48.538Z,96.40
2018-12-04T21:00:17.052Z,96.50
2018-12-04T21:02:45.848Z,96.20
2018-12-04T21:05:14.008Z,96.10
2018-12-04T21:07:42.346Z,96.10
2018-12-04T21:10:10.838Z,95.90
2018-12-04T21:12:39.772Z,95.60
2018-12-04T21:15:08.340Z,95.80
2018-12-04T21:17:37.049Z,96.40
2018-12-04T21:20:05.757Z,96.50
2018-12-04T21:22:34.739Z,96.30
2018-12-04T21:25:03.511Z,96.20
2018-12-04T21:27:37.824Z,96.00
2018-12-04T21:30:11.867Z,95.80
2018-12-04T21:32:45.574Z,95.70
2018-12-04T21:35:20.355Z,96.00
2018-12-04T21:37:54.092Z,96.60
2018-12-04T21:40:27.763Z,96.60
2018-12-04T21:43:01.485Z,96.60
2018-12-04T21:45:35.634Z,96.60
2018-12-04T21:48:07.719Z,96.60
2018-12-04T21:50:37.551Z,96.60
2018-12-04T21:53:06.021Z,96.60
2018-12-04T21:55:34.369Z,96.60
2018-12-04T21:58:03.080Z,96.60
2018-12-04T22:00:31.569Z,96.60
2018-12-04T22:03:00.140Z,96.60
2018-12-04T22:05:28.460Z,96.60
2018-12-04T22:07:56.820Z,96.60
2018-12-04T22:10:25.654Z,96.60
2018-12-04T22:12:54.085Z,96.60
2018-12-04T22:15:22.739Z,96.60
2018-12-04T22:17:50.854Z,96.60
2018-12-04T22:20:20.024Z,96.60
2018-12-04T22:22:48.169Z,96.60
2018-12-04T22:25:16.694Z,96.60
2018-12-04T22:27:45.414Z,96.60
2018-12-04T22:30:13.607Z,96.60
2018-12-04T22:32:41.949Z,96.60
2018-12-04T22:35:10.148Z,96.60
2018-12-04T22:37:38.338Z,96.60
2018-12-04T22:40:06.773Z,96.60
2018-12-04T22:42:35.938Z,96.60
2018-12-04T22:45:10.849Z,96.60
2018-12-04T22:47:39.247Z,96.20
2018-12-04T22:50:07.803Z,95.80
2018-12-04T22:52:36.124Z,95.80
2018-12-04T22:55:04.529Z,96.00
2018-12-04T22:57:32.764Z,96.10
2018-12-04T23:00:01.326Z,96.30
2018-12-04T23:02:29.805Z,96.40
2018-12-04T23:04:58.025Z,96.60
2018-12-04T23:07:26.836Z,96.50
2018-12-04T23:09:55.909Z,96.60
2018-12-04T23:12:24.658Z,96.60
2018-12-04T23:14:53.344Z,96.60
2018-12-04T23:17:22.180Z,96.60
2018-12-04T23:19:50.643Z,96.60
2018-12-04T23:22:18.906Z,96.60
2018-12-04T23:24:48.516Z,96.60
2018-12-04T23:27:16.769Z,96.60
2018-12-04T23:29:44.964Z,96.60
2018-12-04T23:32:13.238Z,96.60
2018-12-04T23:34:41.470Z,96.60
2018-12-04T23:37:09.679Z,96.60
2018-12-04T23:39:38.174Z,96.60
2018-12-04T23:42:06.472Z,96.60
2018-12-04T23:44:34.715Z,96.60
2018-12-04T23:47:02.866Z,96.60
2018-12-04T23:49:31.237Z,96.60
2018-12-04T23:51:59.471Z,96.60
2018-12-04T23:54:27.944Z,96.60
2018-12-04T23:56:56.066Z,96.60
2018-12-04T23:59:24.759Z,96.60
